sensor_id;sensor_type;location;lat;lon;timestamp;pressure;altitude;pressure_sealevel;temperature;humidity
4133;BME280;2080;51.038;7.008;2024-03-23T00:55:04;48172.53;;;-142.53;96.97
4133;BME280;2080;51.038;7.008;2024-03-23T01:00:11;47658.25;;;-142.53;94.88
4133;BME280;2080;51.038;7.008;2024-03-23T01:02:39;47929.81;;;-142.53;96.20
4133;BME280;2080;51.038;7.008;2024-03-23T01:05:05;48126.28;;;-142.53;96.52
4133;BME280;2080;51.038;7.008;2024-03-23T01:07:30;48457.63;;;-142.53;97.88
4133;BME280;2080;51.038;7.008;2024-03-23T01:09:58;48748.53;;;-142.53;98.58
4133;BME280;2080;51.038;7.008;2024-03-23T01:12:26;49336.19;;;-142.53;100.00
4133;BME280;2080;51.038;7.008;2024-03-23T01:16:44;48130.16;;;-142.53;97.16
4133;BME280;2080;51.038;7.008;2024-03-23T01:22:40;47960.63;;;-142.53;97.04
4133;BME280;2080;51.038;7.008;2024-03-23T01:25:06;48214.91;;;-142.53;98.09
4133;BME280;2080;51.038;7.008;2024-03-23T01:27:34;47802.69;;;-142.53;96.15
4133;BME280;2080;51.038;7.008;2024-03-23T01:31:22;47633.19;;;-142.53;96.07
4133;BME280;2080;51.038;7.008;2024-03-23T01:33:47;47390.53;;;-142.53;93.79
4133;BME280;2080;51.038;7.008;2024-03-23T01:36:12;47638.97;;;-142.53;95.54
4133;BME280;2080;51.038;7.008;2024-03-23T01:38:38;47979.91;;;-142.53;97.08
4133;BME280;2080;51.038;7.008;2024-03-23T01:41:05;47471.41;;;-142.53;94.49
4133;BME280;2080;51.038;7.008;2024-03-23T01:43:31;47078.56;;;-142.53;91.77
4133;BME280;2080;51.038;7.008;2024-03-23T01:45:59;47456.00;;;-142.53;95.04
4133;BME280;2080;51.038;7.008;2024-03-23T01:48:27;47259.59;;;-142.53;93.77
4133;BME280;2080;51.038;7.008;2024-03-23T01:50:52;47267.28;;;-142.53;93.55
4133;BME280;2080;51.038;7.008;2024-03-23T01:53:22;47290.41;;;-142.53;94.29
4133;BME280;2080;51.038;7.008;2024-03-23T01:55:50;47610.09;;;-142.53;96.15
4133;BME280;2080;51.038;7.008;2024-03-23T01:58:16;47644.75;;;-142.53;95.83
4133;BME280;2080;51.038;7.008;2024-03-23T02:00:44;47450.25;;;-142.53;95.24
4133;BME280;2080;51.038;7.008;2024-03-23T02:03:25;47390.53;;;-142.53;94.45
4133;BME280;2080;51.038;7.008;2024-03-23T02:05:52;47515.72;;;-142.53;95.79
4133;BME280;2080;51.038;7.008;2024-03-23T02:08:20;47467.56;;;-142.53;95.48
4133;BME280;2080;51.038;7.008;2024-03-23T02:10:46;47598.53;;;-142.53;96.56
4133;BME280;2080;51.038;7.008;2024-03-23T02:13:13;47787.28;;;-142.53;96.14
4133;BME280;2080;51.038;7.008;2024-03-23T02:15:41;47482.97;;;-142.53;95.10
4133;BME280;2080;51.038;7.008;2024-03-23T02:18:08;47825.81;;;-142.53;97.40
4133;BME280;2080;51.038;7.008;2024-03-23T02:20:34;47768.03;;;-142.53;96.17
4133;BME280;2080;51.038;7.008;2024-03-23T02:23:00;47592.75;;;-142.53;95.73
4133;BME280;2080;51.038;7.008;2024-03-23T02:25:25;47952.94;;;-142.53;97.50
4133;BME280;2080;51.038;7.008;2024-03-23T02:27:55;47939.44;;;-142.53;98.05
4133;BME280;2080;51.038;7.008;2024-03-23T02:30:22;47814.25;;;-142.53;94.27
4133;BME280;2080;51.038;7.008;2024-03-23T02:32:48;47167.16;;;-142.53;93.75
4133;BME280;2080;51.038;7.008;2024-03-23T02:35:15;47043.91;;;-142.53;93.13
4133;BME280;2080;51.038;7.008;2024-03-23T02:37:41;46930.28;;;-142.53;91.79
4133;BME280;2080;51.038;7.008;2024-03-23T02:40:06;46832.09;;;-142.53;91.53
4133;BME280;2080;51.038;7.008;2024-03-23T02:42:32;46984.22;;;-142.53;93.41
4133;BME280;2080;51.038;7.008;2024-03-23T02:44:58;47043.91;;;-142.53;94.06
4133;BME280;2080;51.038;7.008;2024-03-23T02:47:23;46993.84;;;-142.53;93.57
4133;BME280;2080;51.038;7.008;2024-03-23T02:49:49;46966.88;;;-142.53;92.59
4133;BME280;2080;51.038;7.008;2024-03-23T02:52:14;47013.09;;;-142.53;92.62
4133;BME280;2080;51.038;7.008;2024-03-23T02:54:40;46830.16;;;-142.53;90.50
4133;BME280;2080;51.038;7.008;2024-03-23T02:57:07;46724.25;;;-142.53;88.99
4133;BME280;2080;51.038;7.008;2024-03-23T02:59:32;46762.78;;;-142.53;90.63
4133;BME280;2080;51.038;7.008;2024-03-23T03:02:00;46635.69;;;-142.53;88.25
4133;BME280;2080;51.038;7.008;2024-03-23T03:04:26;46660.72;;;-142.53;89.07
4133;BME280;2080;51.038;7.008;2024-03-23T03:06:54;46720.41;;;-142.53;90.00
4133;BME280;2080;51.038;7.008;2024-03-23T03:09:19;46643.38;;;-142.53;88.37
4133;BME280;2080;51.038;7.008;2024-03-23T03:11:47;46762.78;;;-142.53;91.44
4133;BME280;2080;51.038;7.008;2024-03-23T03:14:13;46678.03;;;-142.53;89.46
4133;BME280;2080;51.038;7.008;2024-03-23T03:16:38;46695.38;;;-142.53;90.42
4133;BME280;2080;51.038;7.008;2024-03-23T03:19:04;46681.91;;;-142.53;89.51
4133;BME280;2080;51.038;7.008;2024-03-23T03:21:29;46649.16;;;-142.53;88.96
4133;BME280;2080;51.038;7.008;2024-03-23T03:23:54;46585.63;;;-142.53;88.26
4133;BME280;2080;51.038;7.008;2024-03-23T03:26:22;46547.13;;;-142.53;87.81
4133;BME280;2080;51.038;7.008;2024-03-23T03:28:47;46558.66;;;-142.53;87.72
4133;BME280;2080;51.038;7.008;2024-03-23T03:31:17;46612.59;;;-142.53;88.79
4133;BME280;2080;51.038;7.008;2024-03-23T03:33:44;46522.09;;;-142.53;86.63
4133;BME280;2080;51.038;7.008;2024-03-23T03:36:09;46524.00;;;-142.53;86.68
4133;BME280;2080;51.038;7.008;2024-03-23T03:38:35;46454.72;;;-142.53;86.43
4133;BME280;2080;51.038;7.008;2024-03-23T03:41:01;46485.50;;;-142.53;86.16
4133;BME280;2080;51.038;7.008;2024-03-23T03:46:09;46464.34;;;-142.53;85.96
4133;BME280;2080;51.038;7.008;2024-03-23T03:48:36;46443.16;;;-142.53;85.09
4133;BME280;2080;51.038;7.008;2024-03-23T03:51:01;46425.81;;;-142.53;85.54
4133;BME280;2080;51.038;7.008;2024-03-23T03:53:31;46489.34;;;-142.53;86.29
4133;BME280;2080;51.038;7.008;2024-03-23T03:56:03;46431.59;;;-142.53;85.86
4133;BME280;2080;51.038;7.008;2024-03-23T03:58:28;46439.31;;;-142.53;86.19
4133;BME280;2080;51.038;7.008;2024-03-23T04:00:54;46429.69;;;-142.53;85.83
4133;BME280;2080;51.038;7.008;2024-03-23T04:03:19;46464.34;;;-142.53;86.88
4133;BME280;2080;51.038;7.008;2024-03-23T04:05:54;46458.56;;;-142.53;86.41
4133;BME280;2080;51.038;7.008;2024-03-23T04:08:21;46497.06;;;-142.53;87.13
4133;BME280;2080;51.038;7.008;2024-03-23T04:10:49;46512.47;;;-142.53;87.08
4133;BME280;2080;51.038;7.008;2024-03-23T04:13:17;46497.06;;;-142.53;87.90
4133;BME280;2080;51.038;7.008;2024-03-23T04:15:42;46489.34;;;-142.53;87.35
4133;BME280;2080;51.038;7.008;2024-03-23T04:18:08;46462.41;;;-142.53;86.75
4133;BME280;2080;51.038;7.008;2024-03-23T04:20:33;46485.50;;;-142.53;86.59
4133;BME280;2080;51.038;7.008;2024-03-23T04:22:59;46500.91;;;-142.53;87.33
4133;BME280;2080;51.038;7.008;2024-03-23T04:25:27;46506.69;;;-142.53;87.62
4133;BME280;2080;51.038;7.008;2024-03-23T04:30:36;46568.31;;;-142.53;88.20
4133;BME280;2080;51.038;7.008;2024-03-23T04:33:02;46456.63;;;-142.53;86.54
4133;BME280;2080;51.038;7.008;2024-03-23T04:35:27;46404.66;;;-142.53;84.75
4133;BME280;2080;51.038;7.008;2024-03-23T04:37:53;46497.06;;;-142.53;88.08
4133;BME280;2080;51.038;7.008;2024-03-23T04:40:18;46541.34;;;-142.53;88.69
4133;BME280;2080;51.038;7.008;2024-03-23T04:42:46;46593.34;;;-142.53;89.40
4133;BME280;2080;51.038;7.008;2024-03-23T04:45:14;46508.63;;;-142.53;87.47
4133;BME280;2080;51.038;7.008;2024-03-23T04:47:40;46520.16;;;-142.53;88.09
4133;BME280;2080;51.038;7.008;2024-03-23T04:50:06;46533.66;;;-142.53;87.16
4133;BME280;2080;51.038;7.008;2024-03-23T04:52:31;46581.78;;;-142.53;88.83
4133;BME280;2080;51.038;7.008;2024-03-23T04:54:57;46643.38;;;-142.53;89.75
4133;BME280;2080;51.038;7.008;2024-03-23T04:57:25;46481.66;;;-142.53;87.10
4133;BME280;2080;51.038;7.008;2024-03-23T04:59:53;46527.88;;;-142.53;88.01
4133;BME280;2080;51.038;7.008;2024-03-23T05:02:18;46547.13;;;-142.53;88.13
4133;BME280;2080;51.038;7.008;2024-03-23T05:04:44;46531.72;;;-142.53;88.15
4133;BME280;2080;51.038;7.008;2024-03-23T05:09:14;46558.66;;;-142.53;87.53
4133;BME280;2080;51.038;7.008;2024-03-23T05:11:40;46500.91;;;-142.53;87.57
4133;BME280;2080;51.038;7.008;2024-03-23T05:14:06;46531.72;;;-142.53;87.75
4133;BME280;2080;51.038;7.008;2024-03-23T05:16:34;46527.88;;;-142.53;87.25
4133;BME280;2080;51.038;7.008;2024-03-23T05:19:00;46624.13;;;-142.53;90.21
4133;BME280;2080;51.038;7.008;2024-03-23T05:21:28;46631.84;;;-142.53;89.56
4133;BME280;2080;51.038;7.008;2024-03-23T05:23:56;46566.38;;;-142.53;88.79
4133;BME280;2080;51.038;7.008;2024-03-23T05:26:23;46516.31;;;-142.53;88.47
4133;BME280;2080;51.038;7.008;2024-03-23T05:28:49;46716.56;;;-142.53;88.55
4133;BME280;2080;51.038;7.008;2024-03-23T05:31:27;46691.53;;;-142.53;90.12
4133;BME280;2080;51.038;7.008;2024-03-23T05:33:55;46599.09;;;-142.53;88.42
4133;BME280;2080;51.038;7.008;2024-03-23T05:36:23;46785.88;;;-142.53;86.07
4133;BME280;2080;51.038;7.008;2024-03-23T05:38:52;46473.97;;;-142.53;87.51
4133;BME280;2080;51.038;7.008;2024-03-23T05:41:17;46654.94;;;-142.53;89.35
4133;BME280;2080;51.038;7.008;2024-03-23T05:43:44;46681.91;;;-142.53;90.11
4133;BME280;2080;51.038;7.008;2024-03-23T05:46:11;46620.28;;;-142.53;89.20
4133;BME280;2080;51.038;7.008;2024-03-23T05:48:36;46579.84;;;-142.53;88.61
4133;BME280;2080;51.038;7.008;2024-03-23T05:51:02;46701.16;;;-142.53;90.25
4133;BME280;2080;51.038;7.008;2024-03-23T05:53:29;46683.81;;;-142.53;90.30
4133;BME280;2080;51.038;7.008;2024-03-23T05:56:04;46839.78;;;-142.53;93.26
4133;BME280;2080;51.038;7.008;2024-03-23T05:58:30;46743.50;;;-142.53;90.96
4133;BME280;2080;51.038;7.008;2024-03-23T06:01:00;46612.59;;;-142.53;88.87
4133;BME280;2080;51.038;7.008;2024-03-23T06:03:29;46547.13;;;-142.53;87.95
4133;BME280;2080;51.038;7.008;2024-03-23T06:05:54;46989.97;;;-142.53;89.10
4133;BME280;2080;51.038;7.008;2024-03-23T06:08:25;46628.00;;;-142.53;89.03
4133;BME280;2080;51.038;7.008;2024-03-23T06:10:51;46758.91;;;-142.53;91.18
4133;BME280;2080;51.038;7.008;2024-03-23T06:13:17;46739.66;;;-142.53;90.00
4133;BME280;2080;51.038;7.008;2024-03-23T06:15:43;46812.84;;;-142.53;92.16
4133;BME280;2080;51.038;7.008;2024-03-23T06:18:08;46901.41;;;-142.53;93.23
4133;BME280;2080;51.038;7.008;2024-03-23T06:20:34;46604.88;;;-142.53;88.09
4133;BME280;2080;51.038;7.008;2024-03-23T06:23:05;46537.50;;;-142.53;87.63
4133;BME280;2080;51.038;7.008;2024-03-23T06:25:30;46762.78;;;-142.53;91.28
4133;BME280;2080;51.038;7.008;2024-03-23T06:27:56;46499.00;;;-142.53;86.50
4133;BME280;2080;51.038;7.008;2024-03-23T06:30:23;46639.53;;;-142.53;89.34
4133;BME280;2080;51.038;7.008;2024-03-23T06:32:51;46558.66;;;-142.53;87.82
4133;BME280;2080;51.038;7.008;2024-03-23T06:35:18;46522.09;;;-142.53;87.63
4133;BME280;2080;51.038;7.008;2024-03-23T06:37:43;46524.00;;;-142.53;87.47
4133;BME280;2080;51.038;7.008;2024-03-23T06:40:11;46597.19;;;-142.53;87.85
4133;BME280;2080;51.038;7.008;2024-03-23T06:42:37;46689.59;;;-142.53;91.25
4133;BME280;2080;51.038;7.008;2024-03-23T06:45:03;46535.56;;;-142.53;86.87
4133;BME280;2080;51.038;7.008;2024-03-23T06:47:30;46608.72;;;-142.53;89.13
4133;BME280;2080;51.038;7.008;2024-03-23T06:49:59;46550.97;;;-142.53;87.87
4133;BME280;2080;51.038;7.008;2024-03-23T06:52:27;46604.88;;;-142.53;88.36
4133;BME280;2080;51.038;7.008;2024-03-23T06:54:53;46616.44;;;-142.53;89.59
4133;BME280;2080;51.038;7.008;2024-03-23T06:57:18;46574.06;;;-142.53;87.93
4133;BME280;2080;51.038;7.008;2024-03-23T06:59:44;46552.91;;;-142.53;88.33
4133;BME280;2080;51.038;7.008;2024-03-23T07:02:14;46568.31;;;-142.53;88.25
4133;BME280;2080;51.038;7.008;2024-03-23T07:04:41;46635.69;;;-142.53;88.86
4133;BME280;2080;51.038;7.008;2024-03-23T07:07:09;46504.75;;;-142.53;87.54
4133;BME280;2080;51.038;7.008;2024-03-23T07:09:34;46516.31;;;-142.53;86.75
4133;BME280;2080;51.038;7.008;2024-03-23T07:12:02;46439.31;;;-142.53;86.14
4133;BME280;2080;51.038;7.008;2024-03-23T07:14:28;46481.66;;;-142.53;87.08
4133;BME280;2080;51.038;7.008;2024-03-23T07:16:55;46477.81;;;-142.53;86.40
4133;BME280;2080;51.038;7.008;2024-03-23T07:19:21;46472.03;;;-142.53;86.95
4133;BME280;2080;51.038;7.008;2024-03-23T07:21:46;46489.34;;;-142.53;86.40
4133;BME280;2080;51.038;7.008;2024-03-23T07:24:13;46516.31;;;-142.53;86.32
4133;BME280;2080;51.038;7.008;2024-03-23T07:26:38;46537.50;;;-142.53;87.39
4133;BME280;2080;51.038;7.008;2024-03-23T07:29:05;46824.38;;;-142.53;87.33
4133;BME280;2080;51.038;7.008;2024-03-23T07:31:30;46508.63;;;-142.53;87.34
4133;BME280;2080;51.038;7.008;2024-03-23T07:33:56;46537.50;;;-142.53;89.07
4133;BME280;2080;51.038;7.008;2024-03-23T07:36:24;46516.31;;;-142.53;87.51
4133;BME280;2080;51.038;7.008;2024-03-23T07:38:50;46495.13;;;-142.53;87.42
4133;BME280;2080;51.038;7.008;2024-03-23T07:41:19;46427.75;;;-142.53;85.55
4133;BME280;2080;51.038;7.008;2024-03-23T07:43:46;46581.78;;;-142.53;89.72
4133;BME280;2080;51.038;7.008;2024-03-23T07:46:15;46525.94;;;-142.53;88.49
4133;BME280;2080;51.038;7.008;2024-03-23T07:48:42;46550.97;;;-142.53;88.65
4133;BME280;2080;51.038;7.008;2024-03-23T07:51:17;46477.81;;;-142.53;86.46
4133;BME280;2080;51.038;7.008;2024-03-23T07:53:43;46470.09;;;-142.53;86.52
4133;BME280;2080;51.038;7.008;2024-03-23T07:56:10;46462.41;;;-142.53;85.90
4133;BME280;2080;51.038;7.008;2024-03-23T07:58:36;46439.31;;;-142.53;86.10
4133;BME280;2080;51.038;7.008;2024-03-23T08:01:22;46504.75;;;-142.53;86.43
4133;BME280;2080;51.038;7.008;2024-03-23T08:03:47;46445.06;;;-142.53;86.22
4133;BME280;2080;51.038;7.008;2024-03-23T08:06:16;46462.41;;;-142.53;87.12
4133;BME280;2080;51.038;7.008;2024-03-23T08:08:43;46389.25;;;-142.53;85.54
4133;BME280;2080;51.038;7.008;2024-03-23T08:11:09;46414.28;;;-142.53;85.20
4133;BME280;2080;51.038;7.008;2024-03-23T08:13:35;46443.16;;;-142.53;86.32
4133;BME280;2080;51.038;7.008;2024-03-23T08:16:02;46370.00;;;-142.53;85.14
4133;BME280;2080;51.038;7.008;2024-03-23T08:18:31;46354.59;;;-142.53;83.49
4133;BME280;2080;51.038;7.008;2024-03-23T08:23:32;46300.69;;;-142.53;81.38
4133;BME280;2080;51.038;7.008;2024-03-23T08:26:08;46242.94;;;-142.53;79.05
4133;BME280;2080;51.038;7.008;2024-03-23T08:28:34;46269.88;;;-142.53;79.11
4133;BME280;2080;51.038;7.008;2024-03-23T08:31:10;46239.06;;;-142.53;77.91
4133;BME280;2080;51.038;7.008;2024-03-23T08:33:39;46219.81;;;-142.53;79.14
4133;BME280;2080;51.038;7.008;2024-03-23T08:36:09;46239.06;;;-142.53;78.89
4133;BME280;2080;51.038;7.008;2024-03-23T08:38:35;46160.16;;;-142.53;73.51
4133;BME280;2080;51.038;7.008;2024-03-23T08:41:07;46204.41;;;-142.53;75.35
4133;BME280;2080;51.038;7.008;2024-03-23T08:43:35;46196.72;;;-142.53;77.70
4133;BME280;2080;51.038;7.008;2024-03-23T08:48:30;46150.53;;;-142.53;72.83
4133;BME280;2080;51.038;7.008;2024-03-23T08:51:06;46165.91;;;-142.53;71.58
4133;BME280;2080;51.038;7.008;2024-03-23T08:53:32;46119.72;;;-142.53;70.49
4133;BME280;2080;51.038;7.008;2024-03-23T08:55:58;46106.25;;;-142.53;69.40
4133;BME280;2080;51.038;7.008;2024-03-23T08:58:26;46135.13;;;-142.53;75.02
4133;BME280;2080;51.038;7.008;2024-03-23T09:00:52;46146.66;;;-142.53;72.78
4133;BME280;2080;51.038;7.008;2024-03-23T09:03:23;46142.81;;;-142.53;68.16
4133;BME280;2080;51.038;7.008;2024-03-23T09:05:49;46123.56;;;-142.53;71.24
4133;BME280;2080;51.038;7.008;2024-03-23T09:08:16;46108.16;;;-142.53;71.28
4133;BME280;2080;51.038;7.008;2024-03-23T09:10:42;46154.38;;;-142.53;75.95
4133;BME280;2080;51.038;7.008;2024-03-23T09:13:09;46131.28;;;-142.53;73.88
4133;BME280;2080;51.038;7.008;2024-03-23T09:15:46;46119.72;;;-142.53;72.62
4133;BME280;2080;51.038;7.008;2024-03-23T09:18:11;46131.28;;;-142.53;70.91
4133;BME280;2080;51.038;7.008;2024-03-23T09:20:39;46154.38;;;-142.53;72.05
4133;BME280;2080;51.038;7.008;2024-03-23T09:23:07;46121.66;;;-142.53;70.33
4133;BME280;2080;51.038;7.008;2024-03-23T09:25:38;46104.31;;;-142.53;71.96
4133;BME280;2080;51.038;7.008;2024-03-23T09:28:06;46138.97;;;-142.53;71.83
4133;BME280;2080;51.038;7.008;2024-03-23T09:30:34;46138.97;;;-142.53;75.92
4133;BME280;2080;51.038;7.008;2024-03-23T09:33:07;46131.28;;;-142.53;71.82
4133;BME280;2080;51.038;7.008;2024-03-23T09:35:42;46088.91;;;-142.53;66.03
4133;BME280;2080;51.038;7.008;2024-03-23T09:38:07;46085.06;;;-142.53;64.32
4133;BME280;2080;51.038;7.008;2024-03-23T09:40:40;46077.38;;;-142.53;62.63
4133;BME280;2080;51.038;7.008;2024-03-23T09:43:06;46108.16;;;-142.53;67.35
4133;BME280;2080;51.038;7.008;2024-03-23T09:45:34;46088.91;;;-142.53;67.96
4133;BME280;2080;51.038;7.008;2024-03-23T09:48:01;46081.22;;;-142.53;60.94
4133;BME280;2080;51.038;7.008;2024-03-23T09:50:29;46100.47;;;-142.53;62.47
4133;BME280;2080;51.038;7.008;2024-03-23T09:52:55;46054.25;;;-142.53;61.05
4133;BME280;2080;51.038;7.008;2024-03-23T09:55:24;46121.66;;;-142.53;62.26
4133;BME280;2080;51.038;7.008;2024-03-23T09:57:52;46331.50;;;-142.53;60.71
4133;BME280;2080;51.038;7.008;2024-03-23T10:00:21;46100.47;;;-142.53;64.11
4133;BME280;2080;51.038;7.008;2024-03-23T10:02:46;46098.53;;;-142.53;63.92
4133;BME280;2080;51.038;7.008;2024-03-23T10:05:22;46092.75;;;-142.53;61.34
4133;BME280;2080;51.038;7.008;2024-03-23T10:07:52;46061.97;;;-142.53;57.11
4133;BME280;2080;51.038;7.008;2024-03-23T10:10:18;46088.91;;;-142.53;61.14
4133;BME280;2080;51.038;7.008;2024-03-23T10:12:48;46081.22;;;-142.53;58.49
4133;BME280;2080;51.038;7.008;2024-03-23T10:15:21;46069.66;;;-142.53;57.61
4133;BME280;2080;51.038;7.008;2024-03-23T10:17:50;46092.75;;;-142.53;58.97
4133;BME280;2080;51.038;7.008;2024-03-23T10:20:19;46106.25;;;-142.53;62.73
4133;BME280;2080;51.038;7.008;2024-03-23T10:22:47;46048.50;;;-142.53;57.09
4133;BME280;2080;51.038;7.008;2024-03-23T10:25:16;46081.22;;;-142.53;59.12
4133;BME280;2080;51.038;7.008;2024-03-23T10:27:58;46071.59;;;-142.53;54.52
4133;BME280;2080;51.038;7.008;2024-03-23T10:30:25;46077.38;;;-142.53;53.33
4133;BME280;2080;51.038;7.008;2024-03-23T10:33:06;46104.31;;;-142.53;56.11
4133;BME280;2080;51.038;7.008;2024-03-23T10:35:32;46008.06;;;-142.53;53.02
4133;BME280;2080;51.038;7.008;2024-03-23T10:37:57;46092.75;;;-142.53;52.47
4133;BME280;2080;51.038;7.008;2024-03-23T10:40:23;46087.00;;;-142.53;51.18
4133;BME280;2080;51.038;7.008;2024-03-23T10:42:52;46085.06;;;-142.53;51.69
4133;BME280;2080;51.038;7.008;2024-03-23T10:45:19;46102.38;;;-142.53;55.70
4133;BME280;2080;51.038;7.008;2024-03-23T10:47:44;46073.50;;;-142.53;57.07
4133;BME280;2080;51.038;7.008;2024-03-23T10:50:09;46096.63;;;-142.53;65.97
4133;BME280;2080;51.038;7.008;2024-03-23T10:52:41;46096.63;;;-142.53;67.25
4133;BME280;2080;51.038;7.008;2024-03-23T10:55:11;46119.72;;;-142.53;62.41
4133;BME280;2080;51.038;7.008;2024-03-23T10:57:41;46094.69;;;-142.53;59.63
4133;BME280;2080;51.038;7.008;2024-03-23T11:00:12;46162.06;;;-142.53;58.84
4133;BME280;2080;51.038;7.008;2024-03-23T11:02:38;46096.63;;;-142.53;63.66
4133;BME280;2080;51.038;7.008;2024-03-23T11:07:52;46094.69;;;-142.53;58.82
4133;BME280;2080;51.038;7.008;2024-03-23T11:10:30;46113.94;;;-142.53;64.73
4133;BME280;2080;51.038;7.008;2024-03-23T11:12:58;46119.72;;;-142.53;67.68
4133;BME280;2080;51.038;7.008;2024-03-23T11:15:43;46125.50;;;-142.53;66.37
4133;BME280;2080;51.038;7.008;2024-03-23T11:18:08;46092.75;;;-142.53;65.36
4133;BME280;2080;51.038;7.008;2024-03-23T11:20:35;46150.53;;;-142.53;68.34
4133;BME280;2080;51.038;7.008;2024-03-23T11:23:01;46146.66;;;-142.53;69.52
4133;BME280;2080;51.038;7.008;2024-03-23T11:25:30;46138.97;;;-142.53;67.38
4133;BME280;2080;51.038;7.008;2024-03-23T11:28:10;46137.03;;;-142.53;71.69
4133;BME280;2080;51.038;7.008;2024-03-23T11:30:36;46140.91;;;-142.53;67.25
4133;BME280;2080;51.038;7.008;2024-03-23T11:33:03;46146.66;;;-142.53;66.54
4133;BME280;2080;51.038;7.008;2024-03-23T11:35:39;46146.66;;;-142.53;67.73
4133;BME280;2080;51.038;7.008;2024-03-23T11:38:15;46154.38;;;-142.53;65.75
4133;BME280;2080;51.038;7.008;2024-03-23T11:40:48;46135.13;;;-142.53;65.14
4133;BME280;2080;51.038;7.008;2024-03-23T11:43:18;46104.31;;;-142.53;65.80
4133;BME280;2080;51.038;7.008;2024-03-23T11:48:15;46123.56;;;-142.53;66.70
4133;BME280;2080;51.038;7.008;2024-03-23T11:50:45;46115.88;;;-142.53;65.39
4133;BME280;2080;51.038;7.008;2024-03-23T11:53:18;46127.41;;;-142.53;67.53
4133;BME280;2080;51.038;7.008;2024-03-23T11:55:58;46104.31;;;-142.53;63.24
4133;BME280;2080;51.038;7.008;2024-03-23T11:58:25;46100.47;;;-142.53;61.60
4133;BME280;2080;51.038;7.008;2024-03-23T12:03:17;46110.09;;;-142.53;66.28
4133;BME280;2080;51.038;7.008;2024-03-23T12:05:50;46058.13;;;-142.53;67.37
4133;BME280;2080;51.038;7.008;2024-03-23T12:08:23;46100.47;;;-142.53;64.18
4133;BME280;2080;51.038;7.008;2024-03-23T12:10:54;46113.94;;;-142.53;63.21
4133;BME280;2080;51.038;7.008;2024-03-23T12:13:31;46123.56;;;-142.53;65.56
4133;BME280;2080;51.038;7.008;2024-03-23T12:16:10;46054.25;;;-142.53;59.91
4133;BME280;2080;51.038;7.008;2024-03-23T12:18:37;46056.19;;;-142.53;60.64
4133;BME280;2080;51.038;7.008;2024-03-23T12:21:02;46096.63;;;-142.53;60.45
4133;BME280;2080;51.038;7.008;2024-03-23T12:23:28;46079.28;;;-142.53;59.79
4133;BME280;2080;51.038;7.008;2024-03-23T12:25:56;46088.91;;;-142.53;62.06
4133;BME280;2080;51.038;7.008;2024-03-23T12:28:21;46065.81;;;-142.53;58.05
4133;BME280;2080;51.038;7.008;2024-03-23T12:30:46;46092.75;;;-142.53;57.63
4133;BME280;2080;51.038;7.008;2024-03-23T12:33:12;46096.63;;;-142.53;58.48
4133;BME280;2080;51.038;7.008;2024-03-23T12:35:39;46108.16;;;-142.53;59.24
4133;BME280;2080;51.038;7.008;2024-03-23T12:38:05;46119.72;;;-142.53;65.88
4133;BME280;2080;51.038;7.008;2024-03-23T12:40:30;46164.00;;;-142.53;71.12
4133;BME280;2080;51.038;7.008;2024-03-23T12:42:58;46158.22;;;-142.53;76.18
4133;BME280;2080;51.038;7.008;2024-03-23T12:45:23;46173.63;;;-142.53;74.20
4133;BME280;2080;51.038;7.008;2024-03-23T12:47:49;46215.97;;;-142.53;81.21
4133;BME280;2080;51.038;7.008;2024-03-23T12:50:14;46316.09;;;-142.53;83.94
4133;BME280;2080;51.038;7.008;2024-03-23T12:52:40;46383.47;;;-142.53;87.63
4133;BME280;2080;51.038;7.008;2024-03-23T12:55:06;46337.25;;;-142.53;84.87
4133;BME280;2080;51.038;7.008;2024-03-23T12:57:31;46262.19;;;-142.53;79.85
4133;BME280;2080;51.038;7.008;2024-03-23T12:59:57;46273.72;;;-142.53;81.06
4133;BME280;2080;51.038;7.008;2024-03-23T13:02:25;46200.56;;;-142.53;75.98
4133;BME280;2080;51.038;7.008;2024-03-23T13:04:51;46227.53;;;-142.53;79.74
4133;BME280;2080;51.038;7.008;2024-03-23T13:07:18;46165.91;;;-142.53;74.83
4133;BME280;2080;51.038;7.008;2024-03-23T13:09:44;46169.78;;;-142.53;71.99
4133;BME280;2080;51.038;7.008;2024-03-23T13:12:09;46189.03;;;-142.53;71.71
4133;BME280;2080;51.038;7.008;2024-03-23T13:14:37;46173.63;;;-142.53;74.34
4133;BME280;2080;51.038;7.008;2024-03-23T13:17:03;46088.91;;;-142.53;65.79
4133;BME280;2080;51.038;7.008;2024-03-23T13:19:29;46129.34;;;-142.53;66.20
4133;BME280;2080;51.038;7.008;2024-03-23T13:21:59;46119.72;;;-142.53;70.76
4133;BME280;2080;51.038;7.008;2024-03-23T13:24:26;46123.56;;;-142.53;66.44
4133;BME280;2080;51.038;7.008;2024-03-23T13:26:52;46131.28;;;-142.53;62.12
4133;BME280;2080;51.038;7.008;2024-03-23T13:29:19;46123.56;;;-142.53;68.69
4133;BME280;2080;51.038;7.008;2024-03-23T13:31:48;46106.25;;;-142.53;68.15
4133;BME280;2080;51.038;7.008;2024-03-23T13:34:14;46227.53;;;-142.53;60.45
4133;BME280;2080;51.038;7.008;2024-03-23T13:36:48;46100.47;;;-142.53;59.14
4133;BME280;2080;51.038;7.008;2024-03-23T13:39:16;46065.81;;;-142.53;53.55
4133;BME280;2080;51.038;7.008;2024-03-23T13:41:45;46071.59;;;-142.53;56.32
4133;BME280;2080;51.038;7.008;2024-03-23T13:44:11;46087.00;;;-142.53;55.82
4133;BME280;2080;51.038;7.008;2024-03-23T13:46:38;46077.38;;;-142.53;53.63
4133;BME280;2080;51.038;7.008;2024-03-23T13:49:06;46004.22;;;-142.53;52.61
4133;BME280;2080;51.038;7.008;2024-03-23T13:51:34;46096.63;;;-142.53;52.95
4133;BME280;2080;51.038;7.008;2024-03-23T13:54:00;46040.78;;;-142.53;51.59
4133;BME280;2080;51.038;7.008;2024-03-23T13:56:29;46073.50;;;-142.53;58.65
4133;BME280;2080;51.038;7.008;2024-03-23T13:58:57;46096.63;;;-142.53;57.86
4133;BME280;2080;51.038;7.008;2024-03-23T14:01:23;46115.88;;;-142.53;58.76
4133;BME280;2080;51.038;7.008;2024-03-23T14:03:51;46123.56;;;-142.53;59.06
4133;BME280;2080;51.038;7.008;2024-03-23T14:06:19;46094.69;;;-142.53;55.18
4133;BME280;2080;51.038;7.008;2024-03-23T14:08:44;46092.75;;;-142.53;47.66
4133;BME280;2080;51.038;7.008;2024-03-23T14:11:15;46090.84;;;-142.53;49.97
4133;BME280;2080;51.038;7.008;2024-03-23T14:13:40;46096.63;;;-142.53;47.49
4133;BME280;2080;51.038;7.008;2024-03-23T14:16:05;46071.59;;;-142.53;46.87
4133;BME280;2080;51.038;7.008;2024-03-23T14:18:31;46096.63;;;-142.53;55.83
4133;BME280;2080;51.038;7.008;2024-03-23T14:20:58;46092.75;;;-142.53;51.86
4133;BME280;2080;51.038;7.008;2024-03-23T14:23:25;46081.22;;;-142.53;54.29
4133;BME280;2080;51.038;7.008;2024-03-23T14:25:55;46061.97;;;-142.53;52.92